createdAt,value
2022-10-10T00:01:22.492Z,99.79
2022-10-10T00:03:54.036Z,99.70
2022-10-10T00:06:21.861Z,99.67
2022-10-10T00:08:53.448Z,99.07
2022-10-10T00:11:22.283Z,98.88
2022-10-10T00:13:52.159Z,98.82
2022-10-10T00:16:20.021Z,98.44
2022-10-10T00:18:47.760Z,98.39
2022-10-10T00:21:18.640Z,98.20
2022-10-10T00:23:46.272Z,98.41
2022-10-10T00:26:19.194Z,98.94
2022-10-10T00:28:47.911Z,98.86
2022-10-10T00:31:15.622Z,99.69
2022-10-10T00:33:46.819Z,99.43
2022-10-10T00:36:14.561Z,99.97
2022-10-10T00:38:42.558Z,99.75
2022-10-10T00:41:10.684Z,100.00
2022-10-10T00:43:38.470Z,100.00
2022-10-10T00:46:06.038Z,100.00
2022-10-10T00:48:39.599Z,100.00
2022-10-10T00:51:13.092Z,100.00
2022-10-10T00:53:51.083Z,100.00
2022-10-10T00:56:21.504Z,100.00
2022-10-10T00:58:51.205Z,100.00
2022-10-10T01:01:20.724Z,100.00
2022-10-10T01:03:48.739Z,100.00
2022-10-10T01:06:16.409Z,100.00
2022-10-10T01:08:44.502Z,100.00
2022-10-10T01:11:30.769Z,100.00
2022-10-10T01:14:23.929Z,100.00
2022-10-10T01:17:00.565Z,100.00
2022-10-10T01:19:43.453Z,100.00
2022-10-10T01:22:51.584Z,100.00
2022-10-10T01:25:46.705Z,100.00
2022-10-10T01:28:29.596Z,100.00
2022-10-10T01:30:57.693Z,100.00
2022-10-10T01:33:29.837Z,100.00
2022-10-10T01:36:20.301Z,100.00
2022-10-10T01:39:07.211Z,100.00
2022-10-10T01:41:39.081Z,100.00
2022-10-10T01:44:06.717Z,100.00
2022-10-10T01:46:34.414Z,100.00
2022-10-10T01:49:02.015Z,100.00
2022-10-10T01:51:48.188Z,100.00
2022-10-10T01:54:42.415Z,100.00
2022-10-10T01:57:56.007Z,100.00
2022-10-10T02:00:23.780Z,100.00
2022-10-10T02:03:06.011Z,100.00
2022-10-10T02:05:51.312Z,100.00
2022-10-10T02:08:37.071Z,100.00
2022-10-10T02:11:08.016Z,100.00
2022-10-10T02:14:00.513Z,100.00
2022-10-10T02:16:30.404Z,100.00
2022-10-10T02:18:58.073Z,100.00
2022-10-10T02:21:26.218Z,100.00
2022-10-10T02:23:54.968Z,100.00
2022-10-10T02:26:22.784Z,100.00
2022-10-10T02:28:54.251Z,100.00
2022-10-10T02:31:28.004Z,100.00
2022-10-10T02:33:58.574Z,100.00
2022-10-10T02:36:26.331Z,100.00
2022-10-10T02:38:54.111Z,100.00
2022-10-10T02:41:21.687Z,100.00
2022-10-10T02:43:50.005Z,100.00
2022-10-10T02:46:18.825Z,100.00
2022-10-10T02:48:46.529Z,100.00
2022-10-10T02:51:14.100Z,100.00
2022-10-10T02:53:41.715Z,100.00
2022-10-10T02:56:09.541Z,100.00
2022-10-10T02:58:38.459Z,100.00
2022-10-10T03:01:06.373Z,100.00
2022-10-10T03:03:34.065Z,100.00
2022-10-10T03:06:02.686Z,100.00
2022-10-10T03:08:30.547Z,100.00
2022-10-10T03:11:02.060Z,100.00
2022-10-10T03:13:30.691Z,100.00
2022-10-10T03:15:58.739Z,100.00
2022-10-10T03:18:28.260Z,100.00
2022-10-10T03:20:56.705Z,100.00
2022-10-10T03:23:24.950Z,100.00
2022-10-10T03:25:54.562Z,100.00
2022-10-10T03:28:22.372Z,100.00
2022-10-10T03:30:50.115Z,100.00
2022-10-10T03:33:18.831Z,100.00
2022-10-10T03:35:46.402Z,100.00
2022-10-10T03:38:14.234Z,100.00
2022-10-10T03:40:42.714Z,100.00
2022-10-10T03:43:11.251Z,100.00
2022-10-10T03:45:39.224Z,100.00
2022-10-10T03:48:06.874Z,100.00
2022-10-10T03:50:34.409Z,100.00
2022-10-10T03:53:02.136Z,100.00
2022-10-10T03:55:29.822Z,100.00
2022-10-10T03:57:57.696Z,100.00
2022-10-10T04:00:25.353Z,100.00
2022-10-10T04:02:54.349Z,100.00
2022-10-10T04:05:22.154Z,100.00
2022-10-10T04:07:50.545Z,100.00
2022-10-10T04:10:18.275Z,100.00
2022-10-10T04:12:46.008Z,100.00
2022-10-10T04:15:13.841Z,100.00
2022-10-10T04:17:41.565Z,100.00
2022-10-10T04:20:09.364Z,100.00
2022-10-10T04:22:37.039Z,100.00
2022-10-10T04:25:04.962Z,100.00
2022-10-10T04:27:32.544Z,100.00
2022-10-10T04:30:00.505Z,100.00
2022-10-10T04:32:28.022Z,100.00
2022-10-10T04:34:56.765Z,100.00
2022-10-10T04:37:24.420Z,100.00
2022-10-10T04:39:52.197Z,100.00
2022-10-10T04:42:19.707Z,100.00
2022-10-10T04:44:47.505Z,100.00
2022-10-10T04:47:15.234Z,100.00
2022-10-10T04:49:43.987Z,100.00
2022-10-10T04:52:11.935Z,100.00
2022-10-10T04:54:39.682Z,100.00
2022-10-10T04:57:07.423Z,100.00
2022-10-10T04:59:35.104Z,99.39
2022-10-10T05:02:02.714Z,99.59
2022-10-10T05:04:30.836Z,99.11
2022-10-10T05:06:58.510Z,98.88
2022-10-10T05:09:26.172Z,99.01
2022-10-10T05:11:54.198Z,98.24
2022-10-10T05:14:23.052Z,98.13
2022-10-10T05:16:54.313Z,97.80
2022-10-10T05:19:22.077Z,97.72
2022-10-10T05:21:50.904Z,97.85
2022-10-10T05:24:18.553Z,98.10
2022-10-10T05:26:46.164Z,97.54
2022-10-10T05:29:13.956Z,96.93
2022-10-10T05:31:41.568Z,96.69
2022-10-10T05:34:15.210Z,95.09
2022-10-10T05:36:45.042Z,94.87
2022-10-10T05:39:13.226Z,93.39
2022-10-10T05:41:41.135Z,92.96
2022-10-10T05:44:09.459Z,92.34
2022-10-10T05:46:37.161Z,91.45
2022-10-10T05:49:04.900Z,90.82
2022-10-10T05:51:32.799Z,90.52
2022-10-10T05:54:00.385Z,91.75
2022-10-10T05:56:28.289Z,91.34
2022-10-10T05:58:55.933Z,91.51
2022-10-10T06:01:23.817Z,90.44
2022-10-10T06:03:56.124Z,90.71
2022-10-10T06:06:25.341Z,89.22
2022-10-10T06:08:53.232Z,88.53
2022-10-10T06:11:22.891Z,87.74
2022-10-10T06:13:54.273Z,88.23
2022-10-10T06:16:22.570Z,87.49
2022-10-10T06:18:51.000Z,87.52
2022-10-10T06:21:19.032Z,86.13
2022-10-10T06:23:47.078Z,86.56
2022-10-10T06:26:14.785Z,86.51
2022-10-10T06:28:42.322Z,85.61
2022-10-10T06:31:11.944Z,83.95
2022-10-10T06:33:41.983Z,84.17
2022-10-10T06:36:10.524Z,83.67
2022-10-10T06:38:39.156Z,84.78
2022-10-10T06:41:09.689Z,85.29
2022-10-10T06:43:37.953Z,84.73
2022-10-10T06:46:06.017Z,84.05
2022-10-10T06:48:35.472Z,84.00
2022-10-10T06:51:05.696Z,83.66
2022-10-10T06:53:33.731Z,83.10
2022-10-10T06:56:02.408Z,82.88
2022-10-10T06:58:30.402Z,81.75
2022-10-10T07:01:00.281Z,81.77
2022-10-10T07:03:29.185Z,80.93
2022-10-10T07:05:58.884Z,80.69
2022-10-10T07:08:27.894Z,81.12
2022-10-10T07:10:57.288Z,81.38
2022-10-10T07:13:25.174Z,82.33
2022-10-10T07:15:53.800Z,81.87
2022-10-10T07:18:22.438Z,82.07
2022-10-10T07:20:50.392Z,81.63
2022-10-10T07:23:18.347Z,82.27
2022-10-10T07:25:46.325Z,81.84
2022-10-10T07:28:15.155Z,81.53
2022-10-10T07:30:44.417Z,81.27
2022-10-10T07:33:14.121Z,82.23
2022-10-10T07:35:44.261Z,82.34
2022-10-10T07:38:12.023Z,82.45
2022-10-10T07:40:41.974Z,82.16
2022-10-10T07:43:10.132Z,81.32
2022-10-10T07:45:39.065Z,81.41
2022-10-10T07:48:06.804Z,80.46
2022-10-10T07:50:35.037Z,80.94
2022-10-10T07:53:02.903Z,80.93
2022-10-10T07:55:31.365Z,80.42
2022-10-10T07:58:00.286Z,80.38
2022-10-10T08:00:28.593Z,80.46
2022-10-10T08:02:56.412Z,79.99
2022-10-10T08:05:25.294Z,79.79
2022-10-10T08:07:53.619Z,80.63
2022-10-10T08:10:21.602Z,80.93
2022-10-10T08:12:54.444Z,81.05
2022-10-10T08:15:23.493Z,80.05
2022-10-10T08:17:52.217Z,81.11
2022-10-10T08:20:20.397Z,80.12
2022-10-10T08:22:48.165Z,80.21
2022-10-10T08:25:16.012Z,80.25
2022-10-10T08:27:45.539Z,79.99
2022-10-10T08:30:16.378Z,79.67
2022-10-10T08:32:45.026Z,79.62
2022-10-10T08:35:13.191Z,78.99
2022-10-10T08:37:41.619Z,79.53
2022-10-10T08:40:13.196Z,78.38
2022-10-10T08:42:51.816Z,78.24
2022-10-10T08:45:25.255Z,78.55
2022-10-10T08:48:05.357Z,78.67
2022-10-10T08:50:39.767Z,78.38
2022-10-10T08:53:40.109Z,77.88
2022-10-10T08:56:08.676Z,78.79
2022-10-10T08:58:46.448Z,77.73
2022-10-10T09:01:28.650Z,77.37
2022-10-10T09:04:01.274Z,77.51
2022-10-10T09:06:41.452Z,78.64
2022-10-10T09:09:56.804Z,78.36
2022-10-10T09:12:44.837Z,77.69
2022-10-10T09:15:34.550Z,78.12
2022-10-10T09:18:36.201Z,78.87
2022-10-10T09:21:20.828Z,78.94
2022-10-10T09:24:00.590Z,78.96
2022-10-10T09:26:30.923Z,79.69
2022-10-10T09:29:29.897Z,79.34
2022-10-10T09:32:05.493Z,78.20
2022-10-10T09:35:00.154Z,78.24
2022-10-10T09:37:48.678Z,79.02
2022-10-10T09:40:20.327Z,79.46
2022-10-10T09:42:48.727Z,79.46
2022-10-10T09:45:48.864Z,78.73
2022-10-10T09:48:18.413Z,78.12
2022-10-10T09:50:46.616Z,78.88
2022-10-10T09:53:17.640Z,79.44
2022-10-10T09:55:46.381Z,80.03
2022-10-10T09:58:37.377Z,79.88
2022-10-10T10:01:14.122Z,79.64
2022-10-10T10:03:42.751Z,79.40
2022-10-10T10:06:13.612Z,79.50
2022-10-10T10:08:45.592Z,80.84
2022-10-10T10:11:29.979Z,81.03
2022-10-10T10:14:00.280Z,81.42
2022-10-10T10:16:38.388Z,81.91
2022-10-10T10:19:09.127Z,82.19
2022-10-10T10:21:50.702Z,82.32
2022-10-10T10:24:24.464Z,82.80
2022-10-10T10:26:52.082Z,84.01
2022-10-10T10:29:33.429Z,83.51
2022-10-10T10:32:06.933Z,84.75
2022-10-10T10:34:47.564Z,84.50
2022-10-10T10:37:27.832Z,85.26
2022-10-10T10:40:20.652Z,86.04
2022-10-10T10:42:54.348Z,86.08
2022-10-10T10:45:44.667Z,87.03
2022-10-10T10:48:29.816Z,87.53
2022-10-10T10:51:05.468Z,87.59
2022-10-10T10:53:49.201Z,87.58
2022-10-10T10:57:31.923Z,87.21
2022-10-10T11:00:21.098Z,86.97
2022-10-10T11:05:15.421Z,85.88
2022-10-10T11:06:27.984Z,84.72
2022-10-10T11:09:05.673Z,85.43
2022-10-10T11:11:48.931Z,85.05
2022-10-10T11:14:36.930Z,84.56
2022-10-10T11:17:15.397Z,84.24
2022-10-10T11:19:50.080Z,84.79
2022-10-10T11:22:20.620Z,84.90
2022-10-10T11:24:53.812Z,84.84
2022-10-10T11:27:45.968Z,85.03
2022-10-10T11:30:31.129Z,84.71
2022-10-10T11:33:06.941Z,84.55
2022-10-10T11:35:45.083Z,83.88
2022-10-10T11:38:35.775Z,84.09
2022-10-10T11:41:12.976Z,84.45
2022-10-10T11:43:54.265Z,84.88
2022-10-10T11:46:30.897Z,84.60
2022-10-10T11:49:13.397Z,83.94
2022-10-10T11:51:44.246Z,84.11
2022-10-10T11:54:31.866Z,85.25
2022-10-10T11:57:01.844Z,85.55
2022-10-10T11:59:32.495Z,85.04
2022-10-10T12:02:00.682Z,84.60
2022-10-10T12:04:37.464Z,84.57
2022-10-10T12:07:14.640Z,85.75
2022-10-10T12:09:45.461Z,87.48
2022-10-10T12:12:28.104Z,88.35
2022-10-10T12:14:59.241Z,88.56
2022-10-10T12:17:30.144Z,88.41
2022-10-10T12:20:11.650Z,88.59
2022-10-10T12:22:39.455Z,88.49
2022-10-10T12:25:42.541Z,89.14
2022-10-10T12:28:13.273Z,90.02
2022-10-10T12:30:57.796Z,89.60
2022-10-10T12:33:26.549Z,90.18
2022-10-10T12:35:54.241Z,90.44
2022-10-10T12:38:28.685Z,89.92
2022-10-10T12:41:12.467Z,90.41
2022-10-10T12:43:44.323Z,90.78
2022-10-10T12:46:17.138Z,91.03
2022-10-10T12:48:44.737Z,91.79
2022-10-10T12:51:19.519Z,92.36
2022-10-10T12:53:50.001Z,92.78
2022-10-10T12:56:17.733Z,93.12
2022-10-10T12:58:45.414Z,93.64
2022-10-10T13:01:26.327Z,93.40
2022-10-10T13:03:54.326Z,93.85
2022-10-10T13:06:31.261Z,94.27
2022-10-10T13:08:58.960Z,94.92
2022-10-10T13:11:27.204Z,95.06
2022-10-10T13:13:56.984Z,94.87
2022-10-10T13:16:29.904Z,95.62
2022-10-10T13:19:02.315Z,95.45
2022-10-10T13:21:34.292Z,96.07
2022-10-10T13:24:04.327Z,96.42
2022-10-10T13:26:40.214Z,97.10
2022-10-10T13:29:35.657Z,96.11
2022-10-10T13:32:08.069Z,96.76
2022-10-10T13:34:40.382Z,96.00
2022-10-10T13:37:08.034Z,96.30
2022-10-10T13:39:37.253Z,96.09
2022-10-10T13:42:06.190Z,96.54
2022-10-10T13:44:48.844Z,96.87
2022-10-10T13:47:55.321Z,97.98
2022-10-10T13:50:25.924Z,99.11
2022-10-10T13:53:29.707Z,100.00
2022-10-10T13:56:09.524Z,100.00
2022-10-10T13:58:46.231Z,100.00
2022-10-10T14:01:28.509Z,100.00
2022-10-10T14:04:20.933Z,100.00
2022-10-10T14:06:50.637Z,100.00
2022-10-10T14:09:24.624Z,100.00
2022-10-10T14:11:52.241Z,100.00
2022-10-10T14:14:25.825Z,100.00
2022-10-10T14:17:00.661Z,100.00
2022-10-10T14:19:28.574Z,100.00
2022-10-10T14:21:56.245Z,100.00
2022-10-10T14:24:24.101Z,100.00
2022-10-10T14:26:52.105Z,100.00
2022-10-10T14:29:19.818Z,100.00
2022-10-10T14:31:47.493Z,100.00
2022-10-10T14:34:15.361Z,100.00
2022-10-10T14:36:47.807Z,100.00
2022-10-10T14:39:19.016Z,100.00
2022-10-10T14:41:46.796Z,100.00
2022-10-10T14:44:14.383Z,100.00
2022-10-10T14:46:42.120Z,100.00
2022-10-10T14:49:16.905Z,100.00
2022-10-10T14:51:44.706Z,100.00
2022-10-10T14:54:13.763Z,100.00
2022-10-10T14:57:08.633Z,100.00
2022-10-10T14:59:46.360Z,100.00
2022-10-10T15:02:21.986Z,100.00
2022-10-10T15:04:49.762Z,100.00
2022-10-10T15:07:17.561Z,100.00
2022-10-10T15:12:39.079Z,100.00
2022-10-10T15:15:07.592Z,100.00
2022-10-10T15:17:35.341Z,100.00
2022-10-10T15:20:04.431Z,100.00
2022-10-10T15:22:32.221Z,100.00
2022-10-10T15:25:00.098Z,100.00
2022-10-10T15:27:30.521Z,100.00
2022-10-10T15:29:58.321Z,100.00
2022-10-10T15:32:26.829Z,100.00
2022-10-10T15:34:54.797Z,100.00
2022-10-10T15:37:24.718Z,100.00
2022-10-10T15:39:52.392Z,100.00
2022-10-10T15:42:22.956Z,100.00
2022-10-10T15:44:51.442Z,100.00
2022-10-10T15:47:19.571Z,100.00
2022-10-10T15:49:47.753Z,100.00
2022-10-10T15:52:15.410Z,100.00
2022-10-10T15:54:44.212Z,100.00
2022-10-10T15:57:16.384Z,100.00
2022-10-10T15:59:46.583Z,100.00
2022-10-10T16:02:14.502Z,100.00
2022-10-10T16:04:42.147Z,100.00
2022-10-10T16:07:25.850Z,100.00
2022-10-10T16:09:59.152Z,100.00
2022-10-10T16:12:27.162Z,100.00
2022-10-10T16:14:55.134Z,100.00
2022-10-10T16:17:23.691Z,100.00
2022-10-10T16:19:51.658Z,100.00
2022-10-10T16:22:19.286Z,100.00
2022-10-10T16:24:54.039Z,100.00
2022-10-10T16:27:32.388Z,100.00
2022-10-10T16:29:59.917Z,100.00
2022-10-10T16:32:27.546Z,100.00
2022-10-10T16:34:55.084Z,100.00
2022-10-10T16:37:22.809Z,100.00
2022-10-10T16:39:50.409Z,100.00
2022-10-10T16:42:17.957Z,100.00
2022-10-10T16:44:46.404Z,100.00
2022-10-10T16:47:14.157Z,100.00
2022-10-10T16:49:41.685Z,100.00
2022-10-10T16:52:09.258Z,100.00
2022-10-10T16:54:38.255Z,100.00
2022-10-10T16:57:05.812Z,100.00
2022-10-10T16:59:35.021Z,100.00
2022-10-10T17:02:03.253Z,100.00
2022-10-10T17:04:30.958Z,100.00
2022-10-10T17:06:58.927Z,100.00
2022-10-10T17:09:26.661Z,100.00
2022-10-10T17:11:55.381Z,100.00
2022-10-10T17:14:23.211Z,100.00
2022-10-10T17:19:39.188Z,100.00
2022-10-10T17:22:06.846Z,100.00
2022-10-10T17:24:34.595Z,100.00
2022-10-10T17:27:02.137Z,100.00
2022-10-10T17:29:30.192Z,100.00
2022-10-10T17:32:00.545Z,100.00
2022-10-10T17:34:31.697Z,100.00
2022-10-10T17:36:59.527Z,100.00
2022-10-10T17:39:27.155Z,100.00
2022-10-10T17:41:55.036Z,100.00
2022-10-10T17:44:23.584Z,100.00
2022-10-10T17:46:51.449Z,100.00
2022-10-10T17:49:19.578Z,100.00
2022-10-10T17:51:47.413Z,100.00
2022-10-10T17:54:15.095Z,100.00
2022-10-10T17:56:44.794Z,100.00
2022-10-10T17:59:12.583Z,100.00
2022-10-10T18:01:40.315Z,100.00
2022-10-10T18:04:08.071Z,100.00
2022-10-10T18:06:36.646Z,100.00
2022-10-10T18:09:05.907Z,100.00
2022-10-10T18:11:33.806Z,100.00
2022-10-10T18:14:01.606Z,100.00
2022-10-10T18:16:35.969Z,100.00
2022-10-10T18:19:06.043Z,100.00
2022-10-10T18:21:34.177Z,100.00
2022-10-10T18:24:02.112Z,100.00
2022-10-10T18:26:30.983Z,100.00
2022-10-10T18:28:59.689Z,100.00
2022-10-10T18:31:33.332Z,100.00
2022-10-10T18:34:01.675Z,100.00
2022-10-10T18:36:31.388Z,100.00
2022-10-10T18:38:59.874Z,100.00
2022-10-10T18:41:34.589Z,100.00
2022-10-10T18:44:12.698Z,100.00
2022-10-10T18:46:40.309Z,100.00
2022-10-10T18:49:09.298Z,100.00
2022-10-10T18:51:37.812Z,100.00
2022-10-10T18:54:08.039Z,100.00
2022-10-10T18:56:36.923Z,100.00
2022-10-10T18:59:06.126Z,100.00
2022-10-10T19:01:36.534Z,100.00
2022-10-10T19:04:05.099Z,100.00
2022-10-10T19:06:32.734Z,100.00
2022-10-10T19:09:00.853Z,100.00
2022-10-10T19:11:30.236Z,100.00
2022-10-10T19:14:04.503Z,100.00
2022-10-10T19:16:35.876Z,100.00
2022-10-10T19:19:03.804Z,100.00
2022-10-10T19:21:33.505Z,100.00
2022-10-10T19:24:04.455Z,100.00
2022-10-10T19:26:33.620Z,100.00
2022-10-10T19:29:06.376Z,100.00
2022-10-10T19:31:35.231Z,100.00
2022-10-10T19:34:02.896Z,100.00
2022-10-10T19:36:32.261Z,100.00
2022-10-10T19:39:00.110Z,100.00
2022-10-10T19:41:28.064Z,100.00
2022-10-10T19:43:57.547Z,100.00
2022-10-10T19:46:27.086Z,100.00
2022-10-10T19:48:57.244Z,100.00
2022-10-10T19:51:25.293Z,100.00
2022-10-10T19:53:52.806Z,100.00
2022-10-10T19:56:24.475Z,100.00
2022-10-10T19:58:56.996Z,100.00
2022-10-10T20:01:29.103Z,100.00
2022-10-10T20:03:57.560Z,100.00
2022-10-10T20:06:25.693Z,100.00
2022-10-10T20:08:53.359Z,100.00
2022-10-10T20:11:21.673Z,100.00
2022-10-10T20:13:54.074Z,100.00
2022-10-10T20:16:22.394Z,100.00
2022-10-10T20:18:51.820Z,100.00
2022-10-10T20:21:22.201Z,100.00
2022-10-10T20:23:50.439Z,100.00
2022-10-10T20:26:20.549Z,100.00
2022-10-10T20:28:49.275Z,100.00
2022-10-10T20:31:21.787Z,100.00
2022-10-10T20:33:50.296Z,100.00
2022-10-10T20:36:18.274Z,100.00
2022-10-10T20:38:51.611Z,100.00
2022-10-10T20:41:19.512Z,100.00
2022-10-10T20:43:47.241Z,100.00
2022-10-10T20:46:15.137Z,100.00
2022-10-10T20:48:42.725Z,100.00
2022-10-10T20:51:12.384Z,100.00
2022-10-10T20:53:42.341Z,100.00
2022-10-10T20:56:11.689Z,100.00
2022-10-10T20:58:40.157Z,100.00
2022-10-10T21:01:09.881Z,100.00
2022-10-10T21:03:37.790Z,100.00
2022-10-10T21:06:30.026Z,100.00
2022-10-10T21:08:59.381Z,100.00
2022-10-10T21:11:28.395Z,100.00
2022-10-10T21:13:58.941Z,100.00
2022-10-10T21:16:28.305Z,100.00
2022-10-10T21:18:58.374Z,100.00
2022-10-10T21:21:27.686Z,100.00
2022-10-10T21:23:56.779Z,100.00
2022-10-10T21:26:26.890Z,100.00
2022-10-10T21:28:55.118Z,100.00
2022-10-10T21:31:25.255Z,100.00
2022-10-10T21:33:54.458Z,100.00
2022-10-10T21:36:23.721Z,100.00
2022-10-10T21:38:51.297Z,100.00
2022-10-10T21:41:19.588Z,100.00
2022-10-10T21:43:48.744Z,100.00
2022-10-10T21:46:17.531Z,100.00
2022-10-10T21:48:45.789Z,100.00
2022-10-10T21:51:15.763Z,100.00
2022-10-10T21:53:44.593Z,100.00
2022-10-10T21:56:12.459Z,100.00
2022-10-10T21:58:41.271Z,100.00
2022-10-10T22:01:15.228Z,100.00
2022-10-10T22:03:43.852Z,100.00
2022-10-10T22:06:14.439Z,100.00
2022-10-10T22:08:42.442Z,100.00
2022-10-10T22:11:17.793Z,100.00
2022-10-10T22:13:45.455Z,100.00
2022-10-10T22:16:14.107Z,100.00
2022-10-10T22:18:41.889Z,100.00
2022-10-10T22:21:13.921Z,100.00
2022-10-10T22:23:41.665Z,100.00
2022-10-10T22:26:10.973Z,100.00
2022-10-10T22:28:38.770Z,100.00
2022-10-10T22:31:07.731Z,100.00
2022-10-10T22:33:36.366Z,100.00
2022-10-10T22:36:05.038Z,100.00
2022-10-10T22:38:36.067Z,100.00
2022-10-10T22:41:03.710Z,100.00
2022-10-10T22:43:31.387Z,100.00
2022-10-10T22:45:59.949Z,100.00
2022-10-10T22:48:27.742Z,100.00
2022-10-10T22:51:05.749Z,100.00
2022-10-10T22:53:35.024Z,100.00
2022-10-10T22:56:03.239Z,100.00
2022-10-10T22:58:33.932Z,100.00
2022-10-10T23:01:06.260Z,100.00
2022-10-10T23:03:33.913Z,100.00
2022-10-10T23:06:02.122Z,100.00
2022-10-10T23:08:30.817Z,100.00
2022-10-10T23:10:58.567Z,100.00
2022-10-10T23:13:26.362Z,100.00
2022-10-10T23:15:54.149Z,100.00
2022-10-10T23:18:21.948Z,100.00
2022-10-10T23:20:50.396Z,100.00
2022-10-10T23:23:18.341Z,100.00
2022-10-10T23:25:46.713Z,100.00
2022-10-10T23:28:15.569Z,100.00
2022-10-10T23:30:44.283Z,100.00
2022-10-10T23:33:12.447Z,100.00
2022-10-10T23:35:40.312Z,100.00
2022-10-10T23:38:08.138Z,100.00
2022-10-10T23:40:35.738Z,100.00
2022-10-10T23:43:03.390Z,100.00
2022-10-10T23:45:31.430Z,100.00
2022-10-10T23:47:59.171Z,100.00
2022-10-10T23:50:26.838Z,100.00
2022-10-10T23:52:54.659Z,100.00
2022-10-10T23:55:22.341Z,100.00
2022-10-10T23:57:49.951Z,100.00
